Solidao, Brazil
Current Conditions -  °F | °C
As of 8:00 AM on Thursday 27 Nov 2014 (Local Time) from SBMK Reporting Station
Clear Clear  
Wind Chill: 73°   Ceiling: Unl
Heat Index: 73°   Visibility: 6mi
Dew Point: 66°   Wind: 2mph
Humidity: 78%   Direction: 40°NE
Pressure: 30"   Gusts: NA
Location:  15.93°S, 43.4°W
Report Text: SBMK 271000Z 04002KT CAVOK 23/19 Q1016
Loading
Personal Weather Stations






























Interactive Weather Map New forecast layout! Learn more

10-Day Weather Forecast

Advertisements
Track Severe Weather on mobile